createdAt,value
2022-09-18T00:01:25.628Z,100.00
2022-09-18T00:03:55.247Z,100.00
2022-09-18T00:06:26.411Z,100.00
2022-09-18T00:08:54.941Z,100.00
2022-09-18T00:11:25.517Z,100.00
2022-09-18T00:13:53.029Z,100.00
2022-09-18T00:16:21.893Z,100.00
2022-09-18T00:18:49.179Z,100.00
2022-09-18T00:21:19.049Z,100.00
2022-09-18T00:23:47.088Z,100.00
2022-09-18T00:26:15.581Z,100.00
2022-09-18T00:28:42.496Z,100.00
2022-09-18T00:31:12.869Z,100.00
2022-09-18T00:33:40.366Z,100.00
2022-09-18T00:36:10.982Z,100.00
2022-09-18T00:38:38.283Z,100.00
2022-09-18T00:41:08.686Z,100.00
2022-09-18T00:43:37.283Z,100.00
2022-09-18T00:46:32.580Z,100.00
2022-09-18T00:49:11.238Z,100.00
2022-09-18T00:51:40.144Z,100.00
2022-09-18T00:54:33.497Z,100.00
2022-09-18T00:57:14.116Z,100.00
2022-09-18T00:59:45.555Z,100.00
2022-09-18T01:02:13.010Z,100.00
2022-09-18T01:04:40.235Z,100.00
2022-09-18T01:07:22.947Z,100.00
2022-09-18T01:10:26.386Z,100.00
2022-09-18T01:13:02.839Z,100.00
2022-09-18T01:15:59.069Z,100.00
2022-09-18T01:18:51.614Z,100.00
2022-09-18T01:21:34.294Z,100.00
2022-09-18T01:24:19.816Z,100.00
2022-09-18T01:26:54.785Z,100.00
2022-09-18T01:29:44.977Z,100.00
2022-09-18T01:32:20.665Z,100.00
2022-09-18T01:35:39.482Z,100.00
2022-09-18T01:38:16.597Z,100.00
2022-09-18T01:40:53.106Z,100.00
2022-09-18T01:43:23.725Z,100.00
2022-09-18T01:45:54.763Z,100.00
2022-09-18T01:48:41.926Z,100.00
2022-09-18T01:51:35.122Z,100.00
2022-09-18T01:54:12.882Z,100.00
2022-09-18T01:57:07.665Z,100.00
2022-09-18T01:59:51.855Z,100.00
2022-09-18T02:02:25.008Z,100.00
2022-09-18T02:04:58.622Z,100.00
2022-09-18T02:07:55.442Z,100.00
2022-09-18T02:10:28.626Z,100.00
2022-09-18T02:12:57.916Z,100.00
2022-09-18T02:15:30.005Z,100.00
2022-09-18T02:18:08.414Z,100.00
2022-09-18T02:20:38.650Z,100.00
2022-09-18T02:23:08.373Z,100.00
2022-09-18T02:25:55.998Z,100.00
2022-09-18T02:28:25.742Z,100.00
2022-09-18T02:30:53.694Z,100.00
2022-09-18T02:33:33.014Z,100.00
2022-09-18T02:36:07.477Z,100.00
2022-09-18T02:39:14.984Z,100.00
2022-09-18T02:41:49.227Z,100.00
2022-09-18T02:44:50.291Z,100.00
2022-09-18T02:47:51.645Z,100.00
2022-09-18T02:50:26.104Z,100.00
2022-09-18T02:53:04.607Z,100.00
2022-09-18T02:55:44.389Z,100.00
2022-09-18T02:58:57.798Z,100.00
2022-09-18T03:01:27.689Z,100.00
2022-09-18T03:03:55.611Z,100.00
2022-09-18T03:06:36.969Z,100.00
2022-09-18T03:09:04.149Z,100.00
2022-09-18T03:11:31.278Z,100.00
2022-09-18T03:13:58.221Z,100.00
2022-09-18T03:16:25.373Z,100.00
2022-09-18T03:18:52.374Z,100.00
2022-09-18T03:21:19.636Z,100.00
2022-09-18T03:23:50.313Z,100.00
2022-09-18T03:26:22.952Z,100.00
2022-09-18T03:28:50.382Z,100.00
2022-09-18T03:31:19.042Z,100.00
2022-09-18T03:33:46.976Z,100.00
2022-09-18T03:36:14.509Z,100.00
2022-09-18T03:38:42.617Z,100.00
2022-09-18T03:41:10.044Z,100.00
2022-09-18T03:43:40.483Z,100.00
2022-09-18T03:46:09.111Z,100.00
2022-09-18T03:48:36.142Z,100.00
2022-09-18T03:51:03.789Z,100.00
2022-09-18T03:53:31.933Z,100.00
2022-09-18T03:56:28.078Z,100.00
2022-09-18T03:59:30.175Z,100.00
2022-09-18T04:02:17.217Z,100.00
2022-09-18T04:04:49.703Z,100.00
2022-09-18T04:07:16.890Z,100.00
2022-09-18T04:09:59.005Z,100.00
2022-09-18T04:12:27.539Z,100.00
2022-09-18T04:15:06.939Z,100.00
2022-09-18T04:17:33.968Z,100.00
2022-09-18T04:20:00.849Z,100.00
2022-09-18T04:22:30.854Z,100.00
2022-09-18T04:24:57.924Z,100.00
2022-09-18T04:27:24.913Z,100.00
2022-09-18T04:29:52.190Z,100.00
2022-09-18T04:32:19.810Z,100.00
2022-09-18T04:34:47.304Z,100.00
2022-09-18T04:37:14.643Z,100.00
2022-09-18T04:39:41.977Z,100.00
2022-09-18T04:42:09.626Z,100.00
2022-09-18T04:44:38.046Z,100.00
2022-09-18T04:47:06.259Z,100.00
2022-09-18T04:49:33.126Z,100.00
2022-09-18T04:52:01.261Z,100.00
2022-09-18T04:54:29.676Z,100.00
2022-09-18T04:56:57.596Z,100.00
2022-09-18T04:59:24.627Z,100.00
2022-09-18T05:01:55.614Z,100.00
2022-09-18T05:04:22.841Z,100.00
2022-09-18T05:06:56.698Z,100.00
2022-09-18T05:09:23.668Z,100.00
2022-09-18T05:11:50.641Z,100.00
2022-09-18T05:14:18.090Z,100.00
2022-09-18T05:16:51.505Z,100.00
2022-09-18T05:19:35.089Z,100.00
2022-09-18T05:22:07.359Z,100.00
2022-09-18T05:24:39.302Z,100.00
2022-09-18T05:27:06.402Z,100.00
2022-09-18T05:29:33.383Z,100.00
2022-09-18T05:32:09.307Z,100.00
2022-09-18T05:34:37.339Z,100.00
2022-09-18T05:37:04.188Z,100.00
2022-09-18T05:39:31.523Z,100.00
2022-09-18T05:42:01.392Z,100.00
2022-09-18T05:44:29.056Z,100.00
2022-09-18T05:46:56.745Z,100.00
2022-09-18T05:49:23.779Z,100.00
2022-09-18T05:51:50.712Z,100.00
2022-09-18T05:54:20.151Z,100.00
2022-09-18T05:56:49.023Z,100.00
2022-09-18T05:59:16.344Z,100.00
2022-09-18T06:01:47.447Z,100.00
2022-09-18T06:04:43.662Z,100.00
2022-09-18T06:07:13.147Z,100.00
2022-09-18T06:09:40.069Z,100.00
2022-09-18T06:12:07.177Z,100.00
2022-09-18T06:14:35.941Z,100.00
2022-09-18T06:17:03.522Z,100.00
2022-09-18T06:19:34.821Z,100.00
2022-09-18T06:22:01.956Z,100.00
2022-09-18T06:24:28.971Z,100.00
2022-09-18T06:27:05.946Z,100.00
2022-09-18T06:29:32.997Z,100.00
2022-09-18T06:32:11.312Z,100.00
2022-09-18T06:34:39.901Z,100.00
2022-09-18T06:37:13.137Z,100.00
2022-09-18T06:39:57.590Z,100.00
2022-09-18T06:42:48.363Z,100.00
2022-09-18T06:45:35.155Z,100.00
2022-09-18T06:48:05.566Z,100.00
2022-09-18T06:50:34.604Z,100.00
2022-09-18T06:53:10.244Z,100.00
2022-09-18T06:55:49.129Z,99.96
2022-09-18T06:58:17.557Z,99.08
2022-09-18T07:00:45.799Z,94.73
2022-09-18T07:03:19.558Z,95.39
2022-09-18T07:06:12.540Z,94.36
2022-09-18T07:08:45.983Z,94.24
2022-09-18T07:11:19.485Z,94.59
2022-09-18T07:13:47.816Z,92.78
2022-09-18T07:16:14.894Z,93.68
2022-09-18T07:18:43.616Z,91.03
2022-09-18T07:21:12.776Z,90.66
2022-09-18T07:23:42.977Z,88.36
2022-09-18T07:26:10.042Z,88.65
2022-09-18T07:28:37.592Z,89.89
2022-09-18T07:31:30.395Z,88.41
2022-09-18T07:33:58.666Z,87.46
2022-09-18T07:36:28.604Z,86.86
2022-09-18T07:38:55.702Z,85.86
2022-09-18T07:41:26.219Z,82.80
2022-09-18T07:43:53.205Z,84.11
2022-09-18T07:46:20.650Z,83.38
2022-09-18T07:48:51.413Z,82.58
2022-09-18T07:51:29.692Z,80.99
2022-09-18T07:53:58.770Z,79.35
2022-09-18T07:56:51.588Z,82.06
2022-09-18T07:59:22.967Z,83.94
2022-09-18T08:01:57.518Z,82.28
2022-09-18T08:04:27.046Z,80.66
2022-09-18T08:07:17.215Z,81.42
2022-09-18T08:09:52.981Z,80.74
2022-09-18T08:12:36.258Z,80.47
2022-09-18T08:15:26.959Z,79.17
2022-09-18T08:18:17.299Z,77.67
2022-09-18T08:20:57.319Z,77.67
2022-09-18T08:23:36.617Z,77.71
2022-09-18T08:26:06.697Z,78.54
2022-09-18T08:28:33.724Z,75.98
2022-09-18T08:31:02.379Z,78.11
2022-09-18T08:33:29.338Z,75.78
2022-09-18T08:35:56.348Z,77.68
2022-09-18T08:38:28.921Z,75.33
2022-09-18T08:41:26.121Z,75.84
2022-09-18T08:44:02.497Z,76.22
2022-09-18T08:46:35.532Z,76.12
2022-09-18T08:49:27.728Z,76.60
2022-09-18T08:52:12.567Z,73.36
2022-09-18T08:54:45.414Z,75.39
2022-09-18T08:57:41.957Z,71.71
2022-09-18T09:00:24.316Z,71.76
2022-09-18T09:03:25.179Z,72.21
2022-09-18T09:06:28.095Z,72.57
2022-09-18T09:09:21.090Z,72.06
2022-09-18T09:11:59.182Z,70.93
2022-09-18T09:15:18.228Z,72.12
2022-09-18T09:18:15.981Z,71.87
2022-09-18T09:20:50.590Z,69.87
2022-09-18T09:23:23.094Z,70.41
2022-09-18T09:26:06.166Z,68.86
2022-09-18T09:29:17.016Z,68.63
2022-09-18T09:32:15.155Z,64.95
2022-09-18T09:35:12.721Z,65.74
2022-09-18T09:37:54.176Z,65.72
2022-09-18T09:40:34.960Z,61.11
2022-09-18T09:43:08.369Z,61.51
2022-09-18T10:16:47.153Z,61.75
2022-09-18T10:19:17.987Z,59.39
2022-09-18T10:21:46.691Z,60.69
2022-09-18T10:24:19.994Z,58.34
2022-09-18T10:26:59.955Z,59.67
2022-09-18T10:29:26.896Z,57.59
2022-09-18T10:32:01.096Z,58.49
2022-09-18T10:34:41.078Z,54.38
2022-09-18T10:37:28.141Z,52.53
2022-09-18T10:40:01.571Z,54.42
2022-09-18T10:42:34.323Z,52.22
2022-09-18T10:45:33.669Z,53.34
2022-09-18T10:48:23.181Z,52.21
2022-09-18T10:50:58.906Z,51.52
2022-09-18T10:53:42.694Z,51.02
2022-09-18T10:56:32.839Z,53.22
2022-09-18T10:59:29.508Z,53.14
2022-09-18T11:01:58.107Z,52.50
2022-09-18T11:04:27.595Z,50.70
2022-09-18T11:06:57.119Z,51.14
2022-09-18T11:09:41.339Z,50.65
2022-09-18T11:12:32.372Z,48.31
2022-09-18T11:15:08.043Z,44.79
2022-09-18T11:17:47.776Z,46.66
2022-09-18T11:20:30.451Z,45.85
2022-09-18T11:23:18.976Z,46.35
2022-09-18T11:25:47.340Z,46.73
2022-09-18T11:28:23.699Z,47.49
2022-09-18T11:31:02.231Z,46.78
2022-09-18T11:33:54.452Z,45.80
2022-09-18T11:36:32.721Z,45.62
2022-09-18T11:39:03.660Z,46.96
2022-09-18T11:41:37.259Z,46.67
2022-09-18T11:44:18.030Z,48.55
2022-09-18T11:46:53.726Z,46.93
2022-09-18T11:49:45.897Z,46.31
2022-09-18T11:52:18.647Z,45.24
2022-09-18T11:54:58.429Z,46.09
2022-09-18T11:57:48.967Z,45.62
2022-09-18T12:00:17.906Z,46.11
2022-09-18T12:02:59.562Z,43.52
2022-09-18T12:05:44.773Z,43.35
2022-09-18T12:08:19.349Z,42.43
2022-09-18T12:11:17.760Z,40.70
2022-09-18T12:13:53.382Z,42.64
2022-09-18T12:16:46.093Z,44.43
2022-09-18T12:19:24.564Z,43.46
2022-09-18T12:22:15.831Z,40.61
2022-09-18T12:24:43.514Z,40.95
2022-09-18T12:27:13.660Z,42.62
2022-09-18T12:30:08.286Z,41.04
2022-09-18T12:32:53.367Z,42.09
2022-09-18T12:35:57.206Z,40.12
2022-09-18T12:38:42.541Z,40.85
2022-09-18T12:41:26.477Z,41.68
2022-09-18T12:44:28.701Z,41.36
2022-09-18T12:47:16.764Z,41.64
2022-09-18T12:50:00.720Z,42.02
2022-09-18T12:53:09.787Z,42.01
2022-09-18T12:55:54.975Z,42.29
2022-09-18T12:58:40.594Z,42.89
2022-09-18T13:01:35.063Z,43.22
2022-09-18T13:04:32.336Z,43.09
2022-09-18T13:07:15.002Z,43.42
2022-09-18T13:09:50.614Z,43.84
2022-09-18T13:12:27.405Z,43.33
2022-09-18T13:15:04.835Z,43.56
2022-09-18T13:17:38.018Z,44.40
2022-09-18T13:20:18.829Z,44.33
2022-09-18T13:22:53.184Z,44.40
2022-09-18T13:25:39.157Z,43.96
2022-09-18T13:28:13.626Z,44.82
2022-09-18T13:30:41.194Z,45.30
2022-09-18T13:33:27.692Z,44.63
2022-09-18T13:35:58.685Z,44.62
2022-09-18T13:38:28.945Z,44.99
2022-09-18T13:40:58.754Z,45.58
2022-09-18T13:43:28.481Z,46.26
2022-09-18T13:46:06.884Z,45.52
2022-09-18T13:48:43.003Z,46.44
2022-09-18T13:51:23.937Z,45.93
2022-09-18T13:54:29.733Z,46.58
2022-09-18T13:57:10.632Z,45.69
2022-09-18T13:59:56.126Z,45.39
2022-09-18T14:02:35.486Z,45.29
2022-09-18T14:05:10.010Z,45.67
2022-09-18T14:07:36.982Z,44.27
2022-09-18T14:10:06.333Z,43.56
2022-09-18T14:12:35.732Z,45.15
2022-09-18T14:15:02.877Z,45.53
2022-09-18T14:17:32.327Z,46.00
2022-09-18T14:20:19.405Z,46.05
2022-09-18T14:22:46.289Z,45.79
2022-09-18T14:25:14.906Z,44.58
2022-09-18T14:27:57.255Z,44.15
2022-09-18T14:30:29.893Z,44.36
2022-09-18T14:33:09.941Z,44.33
2022-09-18T14:35:42.762Z,44.79
2022-09-18T14:38:22.756Z,45.56
2022-09-18T14:40:56.709Z,44.98
2022-09-18T14:43:25.209Z,44.98
2022-09-18T14:45:53.719Z,44.66
2022-09-18T14:48:27.500Z,45.42
2022-09-18T14:51:21.274Z,44.66
2022-09-18T14:53:53.785Z,44.16
2022-09-18T14:56:33.037Z,44.43
2022-09-18T14:59:07.434Z,45.06
2022-09-18T15:01:40.656Z,43.89
2022-09-18T15:04:15.319Z,43.43
2022-09-18T15:06:48.311Z,42.96
2022-09-18T15:09:20.907Z,42.21
2022-09-18T15:12:01.810Z,42.38
2022-09-18T15:14:45.454Z,42.52
2022-09-18T15:17:22.275Z,42.18
2022-09-18T15:20:01.340Z,43.13
2022-09-18T15:22:29.831Z,43.62
2022-09-18T15:25:00.963Z,43.93
2022-09-18T15:27:29.834Z,44.42
2022-09-18T15:30:07.329Z,45.05
2022-09-18T15:32:42.320Z,45.08
2022-09-18T15:35:20.171Z,45.16
2022-09-18T15:37:51.703Z,45.38
2022-09-18T15:40:24.709Z,44.75
2022-09-18T15:43:05.365Z,44.72
2022-09-18T15:45:37.070Z,45.09
2022-09-18T15:48:49.014Z,42.65
2022-09-18T15:51:28.338Z,43.31
2022-09-18T15:54:09.325Z,42.68
2022-09-18T15:56:49.434Z,43.84
2022-09-18T15:59:33.767Z,41.91
2022-09-18T16:02:08.175Z,42.44
2022-09-18T16:04:36.165Z,43.75
2022-09-18T16:07:25.232Z,43.09
2022-09-18T16:09:52.407Z,43.17
2022-09-18T16:12:26.753Z,44.23
2022-09-18T16:15:21.220Z,43.63
2022-09-18T16:18:03.873Z,43.39
2022-09-18T16:20:41.240Z,45.08
2022-09-18T16:23:26.972Z,44.94
2022-09-18T16:26:13.259Z,44.66
2022-09-18T16:28:43.815Z,45.09
2022-09-18T16:31:13.255Z,45.16
2022-09-18T16:33:57.127Z,44.98
2022-09-18T16:36:39.634Z,45.86
2022-09-18T16:39:18.402Z,47.31
2022-09-18T16:41:46.114Z,47.08
2022-09-18T16:44:15.377Z,47.10
2022-09-18T16:46:49.963Z,48.05
2022-09-18T16:49:20.710Z,48.86
2022-09-18T16:51:47.893Z,47.58
2022-09-18T16:54:14.794Z,47.37
2022-09-18T16:56:48.937Z,47.82
2022-09-18T16:59:16.219Z,48.35
2022-09-18T17:02:02.783Z,48.41
2022-09-18T17:04:30.592Z,48.40
2022-09-18T17:06:57.601Z,48.12
2022-09-18T17:09:24.977Z,47.65
2022-09-18T17:11:53.419Z,47.71
2022-09-18T17:14:20.649Z,47.52
2022-09-18T17:16:47.611Z,48.56
2022-09-18T17:19:14.689Z,47.87
2022-09-18T17:21:42.010Z,47.68
2022-09-18T17:24:10.197Z,47.94
2022-09-18T17:26:39.064Z,47.90
2022-09-18T17:29:06.113Z,47.87
2022-09-18T17:31:33.399Z,47.86
2022-09-18T17:34:01.138Z,48.16
2022-09-18T17:36:28.789Z,48.90
2022-09-18T17:38:58.431Z,47.68
2022-09-18T17:41:27.574Z,47.59
2022-09-18T17:43:54.541Z,47.88
2022-09-18T17:46:21.627Z,47.45
2022-09-18T17:48:48.640Z,47.52
2022-09-18T17:51:18.625Z,47.50
2022-09-18T17:53:48.504Z,47.70
2022-09-18T17:56:20.269Z,47.11
2022-09-18T17:58:47.698Z,47.11
2022-09-18T18:01:18.112Z,47.53
2022-09-18T18:03:47.206Z,47.21
2022-09-18T18:06:19.779Z,48.05
2022-09-18T18:08:48.839Z,47.92
2022-09-18T18:11:18.783Z,47.90
2022-09-18T18:13:47.802Z,47.29
2022-09-18T18:16:27.522Z,47.11
2022-09-18T18:18:56.562Z,48.38
2022-09-18T18:21:23.769Z,48.97
2022-09-18T18:24:03.565Z,48.43
2022-09-18T18:26:31.241Z,49.05
2022-09-18T18:28:58.645Z,49.10
2022-09-18T18:31:26.117Z,49.86
2022-09-18T18:33:54.764Z,49.16
2022-09-18T18:36:24.388Z,49.06
2022-09-18T18:38:53.939Z,49.30
2022-09-18T18:41:22.880Z,49.42
2022-09-18T18:43:58.093Z,50.68
2022-09-18T18:46:27.174Z,49.15
2022-09-18T18:49:03.033Z,49.58
2022-09-18T18:51:32.752Z,50.31
2022-09-18T18:54:03.765Z,49.71
2022-09-18T18:56:34.195Z,50.18
2022-09-18T18:59:02.659Z,50.40
2022-09-18T19:01:31.191Z,50.30
2022-09-18T19:04:01.785Z,50.15
2022-09-18T19:06:29.915Z,49.95
2022-09-18T19:08:59.147Z,50.96
2022-09-18T19:11:27.210Z,50.19
2022-09-18T19:13:57.074Z,50.39
2022-09-18T19:16:25.329Z,49.64
2022-09-18T19:19:00.482Z,51.04
2022-09-18T19:21:28.618Z,50.09
2022-09-18T19:23:59.361Z,50.55
2022-09-18T19:26:28.412Z,50.84
2022-09-18T19:28:57.552Z,50.90
2022-09-18T19:31:25.701Z,50.94
2022-09-18T19:33:52.998Z,51.64
2022-09-18T19:36:21.534Z,52.00
2022-09-18T19:38:58.914Z,52.21
2022-09-18T19:42:00.289Z,52.21
2022-09-18T19:44:33.018Z,52.04
2022-09-18T19:47:04.783Z,52.25
2022-09-18T19:49:37.902Z,52.58
2022-09-18T19:52:18.093Z,52.48
2022-09-18T19:54:46.886Z,52.79
2022-09-18T19:57:15.160Z,53.38
2022-09-18T19:59:42.055Z,52.27
2022-09-18T20:02:13.196Z,52.25
2022-09-18T20:04:41.009Z,52.57
2022-09-18T20:07:08.634Z,52.02
2022-09-18T20:09:35.611Z,52.21
2022-09-18T20:12:03.315Z,52.96
2022-09-18T20:14:30.520Z,52.54
2022-09-18T20:16:57.502Z,53.42
2022-09-18T20:19:26.156Z,53.02
2022-09-18T20:21:53.182Z,53.95
2022-09-18T20:24:20.133Z,54.06
2022-09-18T20:26:47.128Z,54.71
2022-09-18T20:29:17.241Z,54.60
2022-09-18T20:31:46.049Z,55.71
2022-09-18T20:34:13.924Z,55.54
2022-09-18T20:36:40.831Z,54.89
2022-09-18T20:39:08.840Z,55.36
2022-09-18T20:41:35.777Z,54.66
2022-09-18T20:44:05.702Z,56.21
2022-09-18T20:46:36.889Z,56.44
2022-09-18T20:49:04.635Z,57.32
2022-09-18T20:51:36.022Z,56.86
2022-09-18T20:54:09.763Z,56.70
2022-09-18T20:56:43.337Z,57.31
2022-09-18T20:59:16.730Z,57.72
2022-09-18T21:01:44.974Z,56.98
2022-09-18T21:04:17.499Z,56.71
2022-09-18T21:06:56.464Z,56.60
2022-09-18T21:09:26.530Z,57.25
2022-09-18T21:11:54.208Z,57.29
2022-09-18T21:14:21.244Z,57.57
2022-09-18T21:16:49.015Z,58.14
2022-09-18T21:19:21.738Z,58.23
2022-09-18T21:21:49.132Z,58.38
2022-09-18T21:24:17.572Z,58.49
2022-09-18T21:26:49.393Z,58.48
2022-09-18T21:29:26.189Z,57.70
2022-09-18T21:31:56.963Z,58.17
2022-09-18T21:34:27.078Z,57.54
2022-09-18T21:36:57.877Z,57.49
2022-09-18T21:39:28.235Z,58.61
2022-09-18T21:41:57.487Z,57.88
2022-09-18T21:44:29.935Z,59.36
2022-09-18T21:46:59.780Z,59.93
2022-09-18T21:49:27.811Z,60.76
2022-09-18T21:51:57.144Z,61.06
2022-09-18T21:54:24.870Z,60.57
2022-09-18T21:56:52.231Z,60.74
2022-09-18T21:59:20.570Z,60.58
2022-09-18T22:01:49.122Z,60.47
2022-09-18T22:04:17.511Z,60.58
2022-09-18T22:06:46.134Z,60.04
2022-09-18T22:09:19.103Z,60.37
2022-09-18T22:11:47.612Z,59.91
2022-09-18T22:14:17.337Z,60.27
2022-09-18T22:16:45.837Z,59.78
2022-09-18T22:19:13.322Z,59.71
2022-09-18T22:21:43.110Z,59.27
2022-09-18T22:24:14.397Z,60.20
2022-09-18T22:26:44.333Z,60.18
2022-09-18T22:29:16.991Z,60.78
2022-09-18T22:31:46.826Z,60.61
2022-09-18T22:34:17.501Z,61.02
2022-09-18T22:36:45.541Z,60.38
2022-09-18T22:39:13.871Z,60.99
2022-09-18T22:41:41.535Z,59.79
2022-09-18T22:44:09.494Z,60.04
2022-09-18T22:46:38.189Z,60.18
2022-09-18T22:49:06.783Z,60.42
2022-09-18T22:51:33.705Z,60.12
2022-09-18T22:54:04.819Z,60.43
2022-09-18T22:56:32.337Z,61.31
2022-09-18T22:59:02.282Z,61.29
2022-09-18T23:01:46.114Z,60.79
2022-09-18T23:04:13.819Z,61.86
2022-09-18T23:06:40.685Z,62.21
2022-09-18T23:09:07.742Z,63.97
2022-09-18T23:11:35.759Z,63.98
2022-09-18T23:14:07.573Z,64.79
2022-09-18T23:16:36.533Z,64.78
2022-09-18T23:19:10.099Z,65.74
2022-09-18T23:21:39.301Z,66.83
2022-09-18T23:24:09.262Z,68.52
2022-09-18T23:26:42.332Z,69.48
2022-09-18T23:29:12.886Z,69.79
2022-09-18T23:31:45.361Z,69.90
2022-09-18T23:34:14.946Z,71.08
2022-09-18T23:36:47.480Z,71.02
2022-09-18T23:39:21.496Z,70.56
2022-09-18T23:41:49.160Z,70.58
2022-09-18T23:44:18.528Z,69.48
2022-09-18T23:46:46.690Z,69.26
2022-09-18T23:49:15.372Z,68.46
2022-09-18T23:51:46.559Z,68.53
2022-09-18T23:54:19.792Z,67.85
2022-09-18T23:56:47.919Z,68.07
2022-09-18T23:59:19.583Z,67.51
